Nanchang, China
Current Conditions -  °F | °C
As of 10:00 PM on Saturday 22 Nov 2014 (Local Time) from ZGHA Reporting Station
Haze Haze  
Wind Chill: 63°   Ceiling: Unl
Heat Index: 63°   Visibility: 1.6mi
Dew Point: 55°   Wind: 7mph
Humidity: 77%   Direction: 20°NNE
Pressure: 30.06"   Gusts: NA
Location:  28.68°N, 115.88°E
Report Text: ZGHA 221400Z 02003MPS 360V070 2700 BR NSC 17/13 Q1018 NOSIG
Loading
Personal Weather Stations






























Interactive Weather Map New forecast layout! Learn more

10-Day Weather Forecast

Advertisements
Track Severe Weather on mobile